createdAt,value
2017-08-28T00:00:22.451Z,87.71
2017-08-28T00:01:02.997Z,87.43
2017-08-28T00:01:43.520Z,87.81
2017-08-28T00:02:24.066Z,87.43
2017-08-28T00:03:04.674Z,87.71
2017-08-28T00:03:45.207Z,87.13
2017-08-28T00:04:25.713Z,88.01
2017-08-28T00:05:06.275Z,87.62
2017-08-28T00:05:46.843Z,87.71
2017-08-28T00:06:27.402Z,87.71
2017-08-28T00:07:07.975Z,87.71
2017-08-28T00:07:48.529Z,87.71
2017-08-28T00:08:29.100Z,87.33
2017-08-28T00:09:09.619Z,87.33
2017-08-28T00:09:50.208Z,87.91
2017-08-28T00:10:30.769Z,87.77
2017-08-28T00:11:11.342Z,88.45
2017-08-28T00:11:51.893Z,88.54
2017-08-28T00:12:32.449Z,87.87
2017-08-28T00:13:13.010Z,88.35
2017-08-28T00:13:53.574Z,88.83
2017-08-28T00:14:34.115Z,88.73
2017-08-28T00:15:14.668Z,88.35
2017-08-28T00:15:55.217Z,87.77
2017-08-28T00:16:35.758Z,87.62
2017-08-28T00:17:16.346Z,87.81
2017-08-28T00:17:56.888Z,87.71
2017-08-28T00:18:37.431Z,88.1
2017-08-28T00:19:17.969Z,87.81
2017-08-28T00:19:58.534Z,87.33
2017-08-28T00:20:39.074Z,87.81
2017-08-28T00:21:19.661Z,88.06
2017-08-28T00:22:00.205Z,87.52
2017-08-28T00:22:40.775Z,87.67
2017-08-28T00:23:21.342Z,88.25
2017-08-28T00:24:01.891Z,88.54
2017-08-28T00:24:42.443Z,87.81
2017-08-28T00:25:22.986Z,87.77
2017-08-28T00:26:03.566Z,87.77
2017-08-28T00:26:44.120Z,87.77
2017-08-28T00:27:24.693Z,88.35
2017-08-28T00:28:05.207Z,88.25
2017-08-28T00:28:45.729Z,88.35
2017-08-28T00:29:26.306Z,88.35
2017-08-28T00:30:06.835Z,88.45
2017-08-28T00:30:47.403Z,88.25
2017-08-28T00:31:27.943Z,88.35
2017-08-28T00:32:08.500Z,88.25
2017-08-28T00:32:49.062Z,88.25
2017-08-28T00:33:29.587Z,88.35
2017-08-28T00:34:10.134Z,88.15
2017-08-28T00:34:50.679Z,88.25
2017-08-28T00:35:31.251Z,88.54
2017-08-28T00:36:11.792Z,88.89
2017-08-28T00:36:52.354Z,88.93
2017-08-28T00:37:32.911Z,88.64
2017-08-28T00:38:13.457Z,88.73
2017-08-28T00:38:54.024Z,88.73
2017-08-28T00:39:34.619Z,88.98
2017-08-28T00:40:15.169Z,88.98
2017-08-28T00:40:55.739Z,88.83
2017-08-28T00:41:36.308Z,88.64
2017-08-28T00:42:16.854Z,88.79
2017-08-28T00:42:57.427Z,89.17
2017-08-28T00:43:37.996Z,88.89
2017-08-28T00:44:18.546Z,89.27
2017-08-28T00:44:59.115Z,89.17
2017-08-28T00:45:39.652Z,88.25
2017-08-28T00:46:20.216Z,89.22
2017-08-28T00:47:00.771Z,88.64
2017-08-28T00:47:41.325Z,88.45
2017-08-28T00:48:21.883Z,89.27
2017-08-28T00:49:02.449Z,88.89
2017-08-28T00:49:43.007Z,88.5
2017-08-28T00:50:23.532Z,88.45
2017-08-28T00:51:04.070Z,88.45
2017-08-28T00:51:44.629Z,87.87
2017-08-28T00:52:25.190Z,88.06
2017-08-28T00:53:05.739Z,88.25
2017-08-28T00:53:46.279Z,88.59
2017-08-28T00:54:26.884Z,88.25
2017-08-28T00:55:07.383Z,88.15
2017-08-28T00:55:47.960Z,88.45
2017-08-28T00:56:28.534Z,87.77
2017-08-28T00:57:09.086Z,87.67
2017-08-28T00:57:49.628Z,88.45
2017-08-28T00:58:30.196Z,88.35
2017-08-28T00:59:10.764Z,88.4
2017-08-28T00:59:51.324Z,88.31
2017-08-28T01:00:31.913Z,87.73
2017-08-28T01:01:12.452Z,88.31
2017-08-28T01:01:53.002Z,88.31
2017-08-28T01:02:33.552Z,88.5
2017-08-28T01:03:14.130Z,88.59
2017-08-28T01:03:54.690Z,88.84
2017-08-28T01:04:35.252Z,88.98
2017-08-28T01:05:15.843Z,89.27
2017-08-28T01:05:56.407Z,88.5
2017-08-28T01:06:36.928Z,88.79
2017-08-28T01:07:17.493Z,88.5
2017-08-28T01:07:58.067Z,88.5
2017-08-28T01:08:38.609Z,88.59
2017-08-28T01:09:19.176Z,88.69
2017-08-28T01:09:59.750Z,88.59
2017-08-28T01:10:40.290Z,88.69
2017-08-28T01:11:20.820Z,88.98
2017-08-28T01:12:01.372Z,88.5
2017-08-28T01:12:41.931Z,87.82
2017-08-28T01:13:22.479Z,88.5
2017-08-28T01:14:03.032Z,87.53
2017-08-28T01:14:43.569Z,88.5
2017-08-28T01:15:24.126Z,87.73
2017-08-28T01:16:04.700Z,87.34
2017-08-28T01:16:45.246Z,87.92
2017-08-28T01:17:25.793Z,88.11
2017-08-28T01:18:06.344Z,87.63
2017-08-28T01:18:46.895Z,87.82
2017-08-28T01:19:27.441Z,87.63
2017-08-28T01:20:08.006Z,87.63
2017-08-28T01:20:48.552Z,87.82
2017-08-28T01:21:29.089Z,88.5
2017-08-28T01:22:09.656Z,88.59
2017-08-28T01:22:50.188Z,88.21
2017-08-28T01:23:30.748Z,88.21
2017-08-28T01:24:11.305Z,88.26
2017-08-28T01:24:51.844Z,88.65
2017-08-28T01:25:32.395Z,88.65
2017-08-28T01:26:12.937Z,88.4
2017-08-28T01:26:53.507Z,88.11
2017-08-28T01:27:34.060Z,88.31
2017-08-28T01:28:14.592Z,87.82
2017-08-28T01:28:55.140Z,88.21
2017-08-28T01:29:35.701Z,88.31
2017-08-28T01:30:16.259Z,88.65
2017-08-28T01:30:56.830Z,88.11
2017-08-28T01:31:37.371Z,88.31
2017-08-28T01:32:17.915Z,88.31
2017-08-28T01:32:58.484Z,88.31
2017-08-28T01:33:39.053Z,88.59
2017-08-28T01:34:19.601Z,88.31
2017-08-28T01:35:00.138Z,88.4
2017-08-28T01:35:40.715Z,88.11
2017-08-28T01:36:21.279Z,88.21
2017-08-28T01:37:01.843Z,88.21
2017-08-28T01:37:42.407Z,88.4
2017-08-28T01:38:22.954Z,87.92
2017-08-28T01:39:03.504Z,88.5
2017-08-28T01:39:44.064Z,88.69
2017-08-28T01:40:24.614Z,88.45
2017-08-28T01:41:05.169Z,88.65
2017-08-28T01:41:45.732Z,88.31
2017-08-28T01:42:26.247Z,87.92
2017-08-28T01:43:06.791Z,88.21
2017-08-28T01:43:47.355Z,88.36
2017-08-28T01:44:27.902Z,88.65
2017-08-28T01:45:08.453Z,88.75
2017-08-28T01:45:49.021Z,88.75
2017-08-28T01:46:29.571Z,88.65
2017-08-28T01:47:10.168Z,88.26
2017-08-28T01:47:50.645Z,88.4
2017-08-28T01:48:31.212Z,88.45
2017-08-28T01:49:11.768Z,88.17
2017-08-28T01:49:52.353Z,88.17
2017-08-28T01:50:32.928Z,88.17
2017-08-28T01:51:13.484Z,87.49
2017-08-28T01:51:54.061Z,87.88
2017-08-28T01:52:34.608Z,87.49
2017-08-28T01:53:15.184Z,87.78
2017-08-28T01:53:55.742Z,88.65
2017-08-28T01:54:36.263Z,88.84
2017-08-28T01:55:16.847Z,88.84
2017-08-28T01:55:57.400Z,88.26
2017-08-28T01:56:37.959Z,88.36
2017-08-28T01:57:18.538Z,88.17
2017-08-28T01:57:59.059Z,88.26
2017-08-28T01:58:39.623Z,88.26
2017-08-28T01:59:20.145Z,88.26
2017-08-28T02:00:00.685Z,88.17
2017-08-28T02:00:41.243Z,88.26
2017-08-28T02:01:21.794Z,87.97
2017-08-28T02:02:02.323Z,88.17
2017-08-28T02:02:42.883Z,88.55
2017-08-28T02:03:23.471Z,88.26
2017-08-28T02:04:04.012Z,88.45
2017-08-28T02:04:44.585Z,87.68
2017-08-28T02:05:25.099Z,88.26
2017-08-28T02:06:05.651Z,88.55
2017-08-28T02:06:46.234Z,88.36
2017-08-28T02:07:26.795Z,88.07
2017-08-28T02:08:07.368Z,87.78
2017-08-28T02:08:47.937Z,88.36
2017-08-28T02:09:28.503Z,88.36
2017-08-28T02:10:09.074Z,87.4
2017-08-28T02:10:49.625Z,87.88
2017-08-28T02:11:30.183Z,87.78
2017-08-28T02:12:10.705Z,87.49
2017-08-28T02:12:51.234Z,87.88
2017-08-28T02:13:31.777Z,87.88
2017-08-28T02:14:12.370Z,88.45
2017-08-28T02:14:52.917Z,88.26
2017-08-28T02:15:33.473Z,88.26
2017-08-28T02:16:13.988Z,88.36
2017-08-28T02:16:54.530Z,88.26
2017-08-28T02:17:35.091Z,88.36
2017-08-28T02:18:15.663Z,87.68
2017-08-28T02:18:56.212Z,87.78
2017-08-28T02:19:36.782Z,88.45
2017-08-28T02:20:17.328Z,88.17
2017-08-28T02:20:57.884Z,87.59
2017-08-28T02:21:38.418Z,87.68
2017-08-28T02:22:18.982Z,88.45
2017-08-28T02:22:59.532Z,87.88
2017-08-28T02:23:40.082Z,88.17
2017-08-28T02:24:20.629Z,88.36
2017-08-28T02:25:01.185Z,87.4
2017-08-28T02:25:41.739Z,87.97
2017-08-28T02:26:22.254Z,88.17
2017-08-28T02:27:02.829Z,88.17
2017-08-28T02:27:43.380Z,88.36
2017-08-28T02:28:23.957Z,88.45
2017-08-28T02:29:04.465Z,88.26
2017-08-28T02:29:45.020Z,89.18
2017-08-28T02:30:25.574Z,88.89
2017-08-28T02:31:06.150Z,88.79
2017-08-28T02:31:46.687Z,88.12
2017-08-28T02:32:27.250Z,88.6
2017-08-28T02:33:07.794Z,88.99
2017-08-28T02:33:48.341Z,89.18
2017-08-28T02:34:28.899Z,88.89
2017-08-28T02:35:09.448Z,88.17
2017-08-28T02:35:50.014Z,88.17
2017-08-28T02:36:30.570Z,88.36
2017-08-28T02:37:11.094Z,88.26
2017-08-28T02:37:51.660Z,87.83
2017-08-28T02:38:32.206Z,88.6
2017-08-28T02:39:12.793Z,88.7
2017-08-28T02:39:53.315Z,88.7
2017-08-28T02:40:33.869Z,88.7
2017-08-28T02:41:14.422Z,88.02
2017-08-28T02:41:54.983Z,88.41
2017-08-28T02:42:35.533Z,88.02
2017-08-28T02:43:16.095Z,88.12
2017-08-28T02:43:56.642Z,88.31
2017-08-28T02:44:37.203Z,88.31
2017-08-28T02:45:17.771Z,87.54
2017-08-28T02:45:58.328Z,87.64
2017-08-28T02:46:38.901Z,88.51
2017-08-28T02:47:19.463Z,88.89
2017-08-28T02:48:00.049Z,88.89
2017-08-28T02:48:40.565Z,89.09
2017-08-28T02:49:21.120Z,88.41
2017-08-28T02:50:01.680Z,88.51
2017-08-28T02:50:42.246Z,88.85
2017-08-28T02:51:22.778Z,88.6
2017-08-28T02:52:03.328Z,88.51
2017-08-28T02:52:43.875Z,89.23
2017-08-28T02:53:24.469Z,89.62
2017-08-28T02:54:04.982Z,89.62
2017-08-28T02:54:45.527Z,89.62
2017-08-28T02:55:26.059Z,89.91
2017-08-28T02:56:06.636Z,89.91
2017-08-28T02:56:47.186Z,90.34
2017-08-28T02:57:27.732Z,89.72
2017-08-28T02:58:08.290Z,89.62
2017-08-28T02:58:48.831Z,89.81
2017-08-28T02:59:29.382Z,89.77
2017-08-28T03:00:09.925Z,90.06
2017-08-28T03:00:50.494Z,90
2017-08-28T03:01:31.041Z,89.72
2017-08-28T03:02:11.585Z,89.96
2017-08-28T03:02:52.143Z,90.06
2017-08-28T03:03:32.694Z,89.48
2017-08-28T03:04:13.257Z,89.53
2017-08-28T03:04:53.832Z,88.75
2017-08-28T03:05:34.386Z,89.43
2017-08-28T03:06:14.946Z,89.43
2017-08-28T03:06:55.492Z,89.43
2017-08-28T03:07:36.037Z,88.85
2017-08-28T03:08:16.589Z,89.23
2017-08-28T03:08:57.158Z,88.85
2017-08-28T03:09:37.710Z,88.85
2017-08-28T03:10:18.308Z,88.95
2017-08-28T03:10:58.853Z,88.75
2017-08-28T03:11:39.428Z,88.56
2017-08-28T03:12:19.986Z,88.85
2017-08-28T03:13:00.543Z,88.65
2017-08-28T03:13:41.091Z,89.23
2017-08-28T03:14:21.650Z,88.75
2017-08-28T03:15:02.228Z,88.75
2017-08-28T03:15:42.762Z,88.95
2017-08-28T03:16:23.323Z,88.75
2017-08-28T03:17:03.888Z,88.85
2017-08-28T03:17:44.423Z,88.27
2017-08-28T03:18:24.967Z,88.46
2017-08-28T03:19:05.544Z,88.46
2017-08-28T03:19:46.082Z,87.98
2017-08-28T03:20:26.647Z,88.27
2017-08-28T03:21:07.203Z,87.7
2017-08-28T03:21:47.758Z,88.41
2017-08-28T03:22:28.321Z,88.46
2017-08-28T03:23:08.881Z,88.08
2017-08-28T03:23:49.427Z,88.37
2017-08-28T03:24:30.006Z,88.37
2017-08-28T03:25:10.538Z,88.95
2017-08-28T03:25:51.087Z,88.85
2017-08-28T03:26:31.612Z,88.81
2017-08-28T03:27:12.179Z,89
2017-08-28T03:27:52.715Z,88.85
2017-08-28T03:28:33.250Z,88.46
2017-08-28T03:29:13.792Z,88.65
2017-08-28T03:29:54.333Z,88.75
2017-08-28T03:30:34.896Z,88.56
2017-08-28T03:31:15.458Z,88.75
2017-08-28T03:31:56.022Z,88.46
2017-08-28T03:32:36.564Z,88.17
2017-08-28T03:33:17.106Z,88.17
2017-08-28T03:33:57.669Z,88.17
2017-08-28T03:34:38.204Z,87.88
2017-08-28T03:35:18.772Z,88.08
2017-08-28T03:35:59.333Z,88.17
2017-08-28T03:36:39.904Z,88.46
2017-08-28T03:37:20.427Z,88.95
2017-08-28T03:38:00.985Z,88.56
2017-08-28T03:38:41.528Z,88.75
2017-08-28T03:39:22.080Z,88.75
2017-08-28T03:40:02.649Z,88.85
2017-08-28T03:40:43.173Z,89.04
2017-08-28T03:41:23.731Z,88.75
2017-08-28T03:42:04.285Z,88.27
2017-08-28T03:42:44.839Z,88.46
2017-08-28T03:43:25.394Z,88.08
2017-08-28T03:44:05.957Z,88.08
2017-08-28T03:44:46.517Z,88.08
2017-08-28T03:45:27.080Z,88.08
2017-08-28T03:46:07.636Z,88.27
2017-08-28T03:46:48.166Z,88.17
2017-08-28T03:47:28.726Z,88.08
2017-08-28T03:48:09.308Z,88.17
2017-08-28T03:48:49.841Z,87.6
2017-08-28T03:49:30.397Z,87.6
2017-08-28T03:50:10.903Z,87.7
2017-08-28T03:50:51.486Z,87.5
2017-08-28T03:51:32.023Z,87.79
2017-08-28T03:52:12.571Z,87.5
2017-08-28T03:52:53.124Z,87.4
2017-08-28T03:53:33.685Z,87.79
2017-08-28T03:54:14.237Z,87.4
2017-08-28T03:54:54.786Z,87.5
2017-08-28T03:55:35.323Z,88.17
2017-08-28T03:56:15.876Z,88.37
2017-08-28T03:56:56.431Z,88.27
2017-08-28T03:57:36.966Z,88.27
2017-08-28T03:58:17.508Z,88.56
2017-08-28T03:58:58.060Z,88.71
2017-08-28T03:59:38.617Z,89.14
2017-08-28T04:00:19.170Z,88.65
2017-08-28T04:00:59.701Z,89.14
2017-08-28T04:01:40.254Z,89.23
2017-08-28T04:02:20.795Z,88.56
2017-08-28T04:03:01.331Z,88.71
2017-08-28T04:03:41.918Z,88.56
2017-08-28T04:04:22.471Z,88.61
2017-08-28T04:05:03.020Z,88.9
2017-08-28T04:05:43.567Z,89
2017-08-28T04:06:24.132Z,89.58
2017-08-28T04:07:04.678Z,88.81
2017-08-28T04:07:45.244Z,89.19
2017-08-28T04:08:25.798Z,88.71
2017-08-28T04:09:06.356Z,89.09
2017-08-28T04:09:46.885Z,89.09
2017-08-28T04:10:27.468Z,89.04
2017-08-28T04:11:07.974Z,88.81
2017-08-28T04:11:48.570Z,89.19
2017-08-28T04:12:29.106Z,88.81
2017-08-28T04:13:09.655Z,88.81
2017-08-28T04:13:50.155Z,88.85
2017-08-28T04:14:30.748Z,88.9
2017-08-28T04:15:11.300Z,89.67
2017-08-28T04:15:51.859Z,89.96
2017-08-28T04:16:32.425Z,89.29
2017-08-28T04:17:12.969Z,88.71
2017-08-28T04:17:53.537Z,88.85
2017-08-28T04:18:34.079Z,88.9
2017-08-28T04:19:14.639Z,89
2017-08-28T04:19:55.216Z,89.19
2017-08-28T04:20:35.751Z,88.81
2017-08-28T04:21:16.311Z,89.39
2017-08-28T04:21:56.863Z,89.48
2017-08-28T04:22:37.387Z,89.19
2017-08-28T04:23:17.932Z,89.29
2017-08-28T04:23:58.475Z,89.67
2017-08-28T04:24:39.036Z,88.9
2017-08-28T04:25:19.591Z,88.81
2017-08-28T04:26:00.147Z,88.95
2017-08-28T04:26:40.706Z,89.19
2017-08-28T04:27:21.262Z,88.85
2017-08-28T04:28:01.854Z,88.65
2017-08-28T04:28:42.375Z,89.23
2017-08-28T04:29:22.901Z,88.65
2017-08-28T04:30:03.515Z,88.65
2017-08-28T04:30:44.081Z,88.85
2017-08-28T04:31:24.625Z,89.14
2017-08-28T04:32:05.169Z,88.75
2017-08-28T04:32:45.735Z,89.04
2017-08-28T04:33:26.266Z,88.65
2017-08-28T04:34:06.822Z,88.56
2017-08-28T04:34:47.376Z,88.17
2017-08-28T04:35:27.934Z,88.65
2017-08-28T04:36:08.488Z,87.98
2017-08-28T04:36:49.042Z,88.65
2017-08-28T04:37:29.579Z,88.17
2017-08-28T04:38:10.148Z,88.27
2017-08-28T04:38:50.682Z,88.37
2017-08-28T04:39:31.249Z,88.56
2017-08-28T04:40:11.807Z,88.65
2017-08-28T04:40:52.384Z,88.08
2017-08-28T04:41:32.923Z,88.27
2017-08-28T04:42:13.475Z,87.88
2017-08-28T04:42:54.031Z,88.65
2017-08-28T04:43:34.571Z,88.17
2017-08-28T04:44:15.127Z,88.37
2017-08-28T04:44:55.703Z,88.75
2017-08-28T04:45:36.221Z,88.81
2017-08-28T04:46:16.753Z,88.42
2017-08-28T04:46:57.301Z,88.46
2017-08-28T04:47:37.858Z,88.51
2017-08-28T04:48:18.411Z,88.85
2017-08-28T04:48:58.965Z,88.71
2017-08-28T04:49:39.511Z,88.51
2017-08-28T04:50:20.077Z,88.61
2017-08-28T04:51:00.597Z,89.29
2017-08-28T04:51:41.152Z,88.51
2017-08-28T04:52:21.719Z,88.61
2017-08-28T04:53:02.285Z,88.81
2017-08-28T04:53:42.850Z,88.61
2017-08-28T04:54:23.400Z,88.56
2017-08-28T04:55:03.943Z,88.37
2017-08-28T04:55:44.494Z,88.27
2017-08-28T04:56:25.065Z,88.27
2017-08-28T04:57:05.672Z,88.17
2017-08-28T04:57:46.188Z,87.98
2017-08-28T04:58:26.769Z,88.08
2017-08-28T04:59:07.294Z,87.79
2017-08-28T04:59:47.847Z,88.42
2017-08-28T05:00:28.406Z,88.46
2017-08-28T05:01:08.945Z,88.65
2017-08-28T05:01:49.508Z,88.17
2017-08-28T05:02:30.079Z,88.37
2017-08-28T05:03:10.619Z,88.13
2017-08-28T05:03:51.203Z,88.17
2017-08-28T05:04:31.859Z,87.7
2017-08-28T05:05:12.386Z,88.17
2017-08-28T05:05:52.928Z,88.23
2017-08-28T05:06:33.494Z,88.17
2017-08-28T05:07:14.016Z,88.37
2017-08-28T05:07:54.574Z,88.17
2017-08-28T05:08:35.122Z,87.6
2017-08-28T05:09:15.717Z,88.08
2017-08-28T05:09:56.364Z,88.17
2017-08-28T05:10:36.901Z,88.17
2017-08-28T05:11:17.464Z,88.17
2017-08-28T05:11:57.998Z,87.94
2017-08-28T05:12:38.601Z,88.32
2017-08-28T05:13:19.137Z,88.56
2017-08-28T05:13:59.701Z,88.81
2017-08-28T05:14:40.249Z,88.51
2017-08-28T05:15:20.810Z,88.42
2017-08-28T05:16:01.356Z,88.46
2017-08-28T05:16:41.881Z,88.46
2017-08-28T05:17:22.460Z,88.23
2017-08-28T05:18:03.019Z,88.32
2017-08-28T05:18:43.615Z,89.09
2017-08-28T05:19:24.296Z,88.9
2017-08-28T05:20:04.836Z,88.81
2017-08-28T05:20:45.438Z,89.29
2017-08-28T05:21:25.949Z,89.09
2017-08-28T05:22:06.489Z,88.81
2017-08-28T05:22:47.048Z,88.81
2017-08-28T05:23:27.611Z,89
2017-08-28T05:24:08.185Z,92.76
2017-08-28T05:24:48.752Z,95.45
2017-08-28T05:25:29.297Z,97.19
2017-08-28T05:26:09.861Z,96.8
2017-08-28T05:26:50.448Z,94.78
2017-08-28T05:27:30.996Z,92.47
2017-08-28T05:28:11.555Z,97.62
2017-08-28T05:28:52.065Z,96.66
2017-08-28T05:29:32.629Z,98.77
2017-08-28T05:30:13.168Z,98.1
2017-08-28T05:30:53.775Z,96.22
2017-08-28T05:31:34.294Z,98.2
2017-08-28T05:32:14.866Z,97.04
2017-08-28T05:32:55.399Z,94.01
2017-08-28T05:33:35.969Z,97.62
2017-08-28T05:34:16.491Z,96.85
2017-08-28T05:34:57.095Z,98.1
2017-08-28T05:35:37.605Z,99.74
2017-08-28T05:36:18.117Z,99.93
2017-08-28T05:36:58.732Z,99.35
2017-08-28T05:37:39.238Z,99.84
2017-08-28T05:38:19.798Z,99.99
2017-08-28T05:39:00.356Z,97.04
2017-08-28T05:39:40.867Z,98.49
2017-08-28T05:40:24.283Z,99.99
2017-08-28T05:41:04.826Z,97.42
2017-08-28T05:41:45.399Z,96.85
2017-08-28T05:42:25.989Z,94.15
2017-08-28T05:43:06.467Z,93.28
2017-08-28T05:43:47.000Z,95.02
2017-08-28T05:44:27.481Z,96.94
2017-08-28T05:45:08.036Z,95.54
2017-08-28T05:45:48.565Z,93.09
2017-08-28T05:46:29.086Z,90.2
2017-08-28T05:47:09.644Z,92.9
2017-08-28T05:47:50.208Z,92.51
2017-08-28T05:48:30.790Z,94.06
2017-08-28T05:49:11.320Z,94.06
2017-08-28T05:49:51.864Z,93.19
2017-08-28T05:50:32.479Z,93.28
2017-08-28T05:51:12.939Z,92.22
2017-08-28T05:51:53.495Z,92.22
2017-08-28T05:52:34.077Z,94.82
2017-08-28T05:53:14.660Z,92.99
2017-08-28T05:53:55.214Z,92.32
2017-08-28T05:54:35.736Z,92.22
2017-08-28T05:55:16.312Z,94.24
2017-08-28T05:55:56.866Z,94.24
2017-08-28T05:56:37.362Z,94.92
2017-08-28T05:57:17.905Z,95.31
2017-08-28T05:57:58.461Z,93.04
2017-08-28T05:58:39.021Z,94.82
2017-08-28T05:59:19.773Z,94.06
2017-08-28T06:00:00.318Z,93.19
2017-08-28T06:00:40.858Z,93.96
2017-08-28T06:01:21.366Z,96.94
2017-08-28T06:02:01.960Z,95.69
2017-08-28T06:02:42.473Z,93.76
2017-08-28T06:03:23.032Z,94.06
2017-08-28T06:04:03.581Z,94.15
2017-08-28T06:04:44.099Z,92.61
2017-08-28T06:05:24.681Z,92.13
2017-08-28T06:06:05.235Z,90.3
2017-08-28T06:06:45.796Z,95.74
2017-08-28T06:07:26.344Z,98.05
2017-08-28T06:08:06.877Z,99.99
2017-08-28T06:08:47.730Z,99.99
2017-08-28T06:09:28.640Z,96.89
2017-08-28T06:10:09.264Z,99.99
2017-08-28T06:10:49.832Z,99.99
2017-08-28T06:11:30.338Z,99.99
2017-08-28T06:12:10.896Z,95.45
2017-08-28T06:12:51.711Z,97.19
2017-08-28T06:13:32.180Z,97.33
2017-08-28T06:14:12.805Z,97.28
2017-08-28T06:14:53.364Z,98.54
2017-08-28T06:15:33.905Z,99.99
2017-08-28T06:16:14.493Z,97.62
2017-08-28T06:16:55.033Z,96.84
2017-08-28T06:17:35.590Z,99.99
2017-08-28T06:18:16.144Z,99.99
2017-08-28T06:18:56.704Z,99.99
2017-08-28T06:19:37.280Z,99.99
2017-08-28T06:20:17.819Z,99.99
2017-08-28T06:20:58.355Z,98.78
2017-08-28T06:21:39.004Z,99.99
2017-08-28T06:22:19.543Z,95.4
2017-08-28T06:23:00.057Z,99.99
2017-08-28T06:23:40.611Z,96.27
2017-08-28T06:24:21.193Z,99.93
2017-08-28T06:25:01.691Z,97.24
2017-08-28T06:25:42.221Z,99.99
2017-08-28T06:26:22.805Z,99.99
2017-08-28T06:27:03.422Z,99.99
2017-08-28T06:27:43.987Z,98.58
2017-08-28T06:28:24.508Z,97.62
2017-08-28T06:29:05.087Z,99.99
2017-08-28T06:29:45.612Z,95.31
2017-08-28T06:30:26.179Z,99.99
2017-08-28T06:31:06.724Z,99.99
2017-08-28T06:31:47.299Z,99.99
2017-08-28T06:32:27.819Z,99.99
2017-08-28T06:33:08.406Z,99.99
2017-08-28T06:33:48.946Z,94.43
2017-08-28T06:34:29.468Z,97.04
2017-08-28T06:35:10.023Z,99.99
2017-08-28T06:35:50.556Z,95.4
2017-08-28T06:36:31.154Z,98.05
2017-08-28T06:37:11.693Z,95.01
2017-08-28T06:37:52.238Z,94.92
2017-08-28T06:38:32.786Z,96.8
2017-08-28T06:39:13.344Z,97.57
2017-08-28T06:39:53.895Z,96.51
2017-08-28T06:40:34.450Z,96.7
2017-08-28T06:41:14.988Z,96.8
2017-08-28T06:41:55.552Z,95.69
2017-08-28T06:42:36.112Z,92.5
2017-08-28T06:43:16.617Z,93.85
2017-08-28T06:43:57.191Z,92.22
2017-08-28T06:44:37.757Z,90.96
2017-08-28T06:45:18.274Z,92.41
2017-08-28T06:45:58.771Z,92.12
2017-08-28T06:46:39.347Z,92.32
2017-08-28T06:47:19.908Z,91.35
2017-08-28T06:48:00.386Z,92.22
2017-08-28T06:48:40.928Z,91.35
2017-08-28T06:49:21.485Z,91.06
2017-08-28T06:50:02.048Z,89.56
2017-08-28T06:50:42.614Z,88.79
2017-08-28T06:51:23.127Z,90.23
2017-08-28T06:52:03.696Z,90.81
2017-08-28T06:52:44.251Z,91.83
2017-08-28T06:53:24.814Z,90.96
2017-08-28T06:54:05.399Z,88.65
2017-08-28T06:54:45.903Z,88.36
2017-08-28T06:55:26.453Z,94.2
2017-08-28T06:56:07.007Z,98.63
2017-08-28T06:56:47.538Z,98.15
2017-08-28T06:57:28.087Z,94.29
2017-08-28T06:58:08.672Z,89.65
2017-08-28T06:58:49.216Z,88.59
2017-08-28T06:59:29.764Z,89.47
2017-08-28T07:00:10.271Z,94.2
2017-08-28T07:00:50.845Z,94.96
2017-08-28T07:01:31.394Z,92.36
2017-08-28T07:02:11.950Z,91.2
2017-08-28T07:02:52.522Z,92.07
2017-08-28T07:03:33.050Z,89.85
2017-08-28T07:04:13.630Z,89.85
2017-08-28T07:04:54.109Z,93.85
2017-08-28T07:05:34.643Z,96.56
2017-08-28T07:06:15.189Z,91.15
2017-08-28T07:06:55.749Z,91.05
2017-08-28T07:07:36.231Z,89.79
2017-08-28T07:08:16.814Z,91.77
2017-08-28T07:08:57.362Z,87.81
2017-08-28T07:09:37.896Z,92.93
2017-08-28T07:10:18.488Z,94.67
2017-08-28T07:10:58.983Z,88.87
2017-08-28T07:11:39.516Z,93.03
2017-08-28T07:12:20.173Z,95.01
2017-08-28T07:13:00.651Z,97.42
2017-08-28T07:13:41.253Z,91.14
2017-08-28T07:14:21.763Z,87.18
2017-08-28T07:15:02.314Z,85.44
2017-08-28T07:15:42.849Z,87.08
2017-08-28T07:16:23.476Z,86.99
2017-08-28T07:17:03.996Z,86.31
2017-08-28T07:17:44.505Z,85.05
2017-08-28T07:18:25.128Z,83.03
2017-08-28T07:19:05.641Z,82.06
2017-08-28T07:19:46.175Z,83.8
2017-08-28T07:20:26.688Z,83.41
2017-08-28T07:21:07.247Z,83.12
2017-08-28T07:21:47.798Z,82.45
2017-08-28T07:22:28.852Z,82.45
2017-08-28T07:23:09.381Z,83.22
2017-08-28T07:23:49.921Z,85.93
2017-08-28T07:24:30.450Z,84.24
2017-08-28T07:25:11.028Z,82.69
2017-08-28T07:25:51.549Z,82.4
2017-08-28T07:26:32.108Z,83.7
2017-08-28T07:27:12.650Z,86.31
2017-08-28T07:27:53.216Z,82.48
2017-08-28T07:28:33.766Z,82.25
2017-08-28T07:29:14.297Z,81.87
2017-08-28T07:29:54.846Z,83.41
2017-08-28T07:30:35.318Z,86.79
2017-08-28T07:31:15.879Z,90.51
2017-08-28T07:31:56.448Z,86.65
2017-08-28T07:32:36.974Z,83.74
2017-08-28T07:33:17.482Z,82.25
2017-08-28T07:33:58.024Z,81.67
2017-08-28T07:34:38.605Z,82.11
2017-08-28T07:35:19.185Z,83.12
2017-08-28T07:35:59.646Z,84.67
2017-08-28T07:36:40.202Z,82.64
2017-08-28T07:37:20.766Z,82.25
2017-08-28T07:38:01.311Z,83.7
2017-08-28T07:38:41.791Z,83.03
2017-08-28T07:39:22.358Z,82.83
2017-08-28T07:40:02.914Z,82.39
2017-08-28T07:40:43.455Z,82.39
2017-08-28T07:41:24.010Z,82.06
2017-08-28T07:42:04.626Z,81.52
2017-08-28T07:42:45.105Z,81.52
2017-08-28T07:43:25.645Z,84.52
2017-08-28T07:44:06.189Z,89.35
2017-08-28T07:44:46.738Z,86.65
2017-08-28T07:45:27.294Z,84.32
2017-08-28T07:46:07.839Z,83.11
2017-08-28T07:46:48.341Z,85.1
2017-08-28T07:47:28.857Z,85.14
2017-08-28T07:48:09.422Z,83.49
2017-08-28T07:48:49.935Z,83.3
2017-08-28T07:49:30.544Z,86.49
2017-08-28T07:50:11.038Z,88.96
2017-08-28T07:50:51.580Z,90.84
2017-08-28T07:51:32.115Z,85.87
2017-08-28T07:52:12.664Z,87.71
2017-08-28T07:52:53.213Z,84.42
2017-08-28T07:53:33.796Z,89.83
2017-08-28T07:54:14.265Z,88.67
2017-08-28T07:54:54.827Z,86.25
2017-08-28T07:55:35.351Z,90.22
2017-08-28T07:56:15.908Z,90.41
2017-08-28T07:56:56.437Z,85.58
2017-08-28T07:57:36.993Z,84.61
2017-08-28T07:58:17.561Z,82.68
2017-08-28T07:58:58.120Z,83.26
2017-08-28T07:59:38.647Z,83.84
2017-08-28T08:00:19.181Z,82.87
2017-08-28T08:00:59.717Z,84.32
2017-08-28T08:01:40.242Z,83.94
2017-08-28T08:02:20.810Z,82.58
2017-08-28T08:03:01.391Z,82.29
2017-08-28T08:03:41.936Z,86.93
2017-08-28T08:04:22.460Z,86.93
2017-08-28T08:05:03.042Z,84.13
2017-08-28T08:05:43.597Z,82.87
2017-08-28T08:06:24.157Z,83.26
2017-08-28T08:07:04.737Z,84.61
2017-08-28T08:07:45.251Z,85.29
2017-08-28T08:08:25.806Z,86.49
2017-08-28T08:09:06.383Z,83.88
2017-08-28T08:09:46.932Z,84.9
2017-08-28T08:10:27.489Z,87.71
2017-08-28T08:11:07.982Z,85
2017-08-28T08:11:48.548Z,82.39
2017-08-28T08:12:29.093Z,81.9
2017-08-28T08:13:09.672Z,82.2
2017-08-28T08:13:50.212Z,81.81
2017-08-28T08:14:30.714Z,81.81
2017-08-28T08:15:11.254Z,82.78
2017-08-28T08:15:51.787Z,82.2
2017-08-28T08:16:32.361Z,81.42
2017-08-28T08:17:12.913Z,85
2017-08-28T08:17:53.450Z,85.97
2017-08-28T08:18:33.971Z,85.48
2017-08-28T08:19:14.496Z,83.74
2017-08-28T08:19:55.071Z,84.03
2017-08-28T08:20:35.622Z,82.58
2017-08-28T08:21:16.272Z,82.2
2017-08-28T08:21:56.841Z,83.06
2017-08-28T08:22:37.383Z,82
2017-08-28T08:23:17.928Z,84.42
2017-08-28T08:23:58.481Z,85.1
2017-08-28T08:24:39.002Z,83.55
2017-08-28T08:25:19.557Z,84.71
2017-08-28T08:26:00.073Z,83.55
2017-08-28T08:26:40.576Z,82.87
2017-08-28T08:27:21.138Z,82.2
2017-08-28T08:28:01.746Z,82.29
2017-08-28T08:28:42.258Z,88.19
2017-08-28T08:29:22.790Z,85.58
2017-08-28T08:30:03.349Z,84.52
2017-08-28T08:30:43.875Z,87.85
2017-08-28T08:31:24.446Z,83.69
2017-08-28T08:32:04.968Z,82.39
2017-08-28T08:32:45.491Z,82.48
2017-08-28T08:33:26.056Z,82.23
2017-08-28T08:34:06.611Z,87.85
2017-08-28T08:34:47.106Z,83.88
2017-08-28T08:35:27.718Z,85.52
2017-08-28T08:36:08.216Z,85.24
2017-08-28T08:36:48.714Z,86.98
2017-08-28T08:37:29.255Z,83.59
2017-08-28T08:38:09.790Z,84.84
2017-08-28T08:38:50.325Z,86.98
2017-08-28T08:39:30.888Z,84.08
2017-08-28T08:40:11.442Z,86.2
2017-08-28T08:40:52.011Z,85.42
2017-08-28T08:41:32.584Z,83.3
2017-08-28T08:42:13.089Z,82.43
2017-08-28T08:42:53.641Z,86.1
2017-08-28T08:43:34.178Z,87.17
2017-08-28T08:44:14.735Z,86.98